Haslet, TX (76052)

12:07 PM CST on December 06, 2016 (GMT -0600)
Haslet Park | | Change Station

Elev 748 ft 32.96 °N, 97.35 °W | Updated 19 seconds ago

Overcast
Overcast
47.8 °F
Feels Like 45 °F
N
5.8
Wind Variable Wind from West

Today
High -- | Low -- °F
--% Chance of Precip.
Yesterday
High -- | Low -- °F
Precip. -- in
Pressure 30.01 in
Visibility 10.0 miles
Clouds Scattered Clouds 1500 ft
Mostly Cloudy 2500 ft
Overcast 3500 ft
Windchill 45 °F
Dew Point 43 °F
Humidity 82%
Rainfall 0.00 in
Snow Depth Not available.
7:18 AM 5:22 PM
Waxing Crescent, 43% visible
METAR KAFW 061753Z COR 34012KT 10SM SCT015 BKN025 OVC035 09/07 A3000 RMK AO2 SLP162 60000 T00940067 10106 20094 50016
Pressure 30.01 in
Visibility 10.0 miles
Clouds Scattered Clouds 1500 ft
Mostly Cloudy 2500 ft
Overcast 3500 ft
Windchill 45 °F
Dew Point 43 °F
Humidity 82%
Rainfall 0.00 in
Snow Depth Not available.
7:18 AM 5:22 PM
Waxing Crescent, 43% visible
METAR KAFW 061753Z COR 34012KT 10SM SCT015 BKN025 OVC035 09/07 A3000 RMK AO2 SLP162 60000 T00940067 10106 20094 50016

10-Day Weather Forecast

Almanac

Astronomy

Dec. 06, 2016 Rise Set
Actual Time
Civil Twilight
Nautical Twilight
Astronomical Twilight
Moon
Length of Visible Light
Length of Day
Tomorrow will be .
, % of the Moon is Illuminated

Today's Extremes

State Highs State Lows

Community

WunderPhotos

Upload Photos

1,955,989 photos uploaded!

WunderBlog® & News

Nearby

Air Quality

  Air Quality AQ Index Pollutant
Not available.

Snow Depth

Station Depth Elevation

Earthquake Activity

City Distance Mag. Time & Date
Minimum magnitude displayed is 2.5.

Coastal Water Temperatures

Place Temperature

Stations

Nearby Weather Stations

Station Location Temp. Windchill Dew Point Humidity Wind Precip. Elev Updated Type
                   

Watches & Warnings

There are currently no watches in effect.